sensor_id;sensor_type;location;lat;lon;timestamp;pressure;altitude;pressure_sealevel;temperature;humidity
11448;BME280;43755;49.736;8.734;2022-10-20T00:01:30;98209.00;;;11.07;100.00
11448;BME280;43755;49.736;8.734;2022-10-20T00:03:31;98200.22;;;11.07;100.00
11448;BME280;43755;49.736;8.734;2022-10-20T00:05:32;98202.63;;;11.13;100.00
11448;BME280;43755;49.736;8.734;2022-10-20T00:07:34;98200.88;;;11.12;100.00
11448;BME280;43755;49.736;8.734;2022-10-20T00:09:35;98198.16;;;11.14;100.00
11448;BME280;43755;49.736;8.734;2022-10-20T00:11:37;98195.25;;;11.20;100.00
11448;BME280;43755;49.736;8.734;2022-10-20T00:13:39;98201.34;;;11.22;100.00
11448;BME280;43755;49.736;8.734;2022-10-20T00:15:47;98197.91;;;11.20;100.00
11448;BME280;43755;49.736;8.734;2022-10-20T00:17:49;98213.88;;;11.18;100.00
11448;BME280;43755;49.736;8.734;2022-10-20T00:19:50;98202.69;;;11.12;100.00
11448;BME280;43755;49.736;8.734;2022-10-20T00:21:52;98195.25;;;10.99;100.00
11448;BME280;43755;49.736;8.734;2022-10-20T00:23:53;98204.84;;;10.80;100.00
11448;BME280;43755;49.736;8.734;2022-10-20T00:26:01;98213.66;;;10.59;100.00
11448;BME280;43755;49.736;8.734;2022-10-20T00:28:04;98203.00;;;10.60;100.00
11448;BME280;43755;49.736;8.734;2022-10-20T00:30:06;98191.25;;;10.67;100.00
11448;BME280;43755;49.736;8.734;2022-10-20T00:32:09;98190.06;;;10.75;100.00
11448;BME280;43755;49.736;8.734;2022-10-20T00:34:10;98176.78;;;10.76;100.00
11448;BME280;43755;49.736;8.734;2022-10-20T00:36:14;98179.31;;;10.79;100.00
11448;BME280;43755;49.736;8.734;2022-10-20T00:38:16;98173.41;;;10.94;100.00
11448;BME280;43755;49.736;8.734;2022-10-20T00:40:17;98165.72;;;10.88;100.00
11448;BME280;43755;49.736;8.734;2022-10-20T00:42:19;98164.03;;;10.86;100.00
11448;BME280;43755;49.736;8.734;2022-10-20T00:44:46;98161.38;;;10.86;100.00
11448;BME280;43755;49.736;8.734;2022-10-20T00:46:49;98160.06;;;10.76;100.00
11448;BME280;43755;49.736;8.734;2022-10-20T00:48:54;98158.28;;;10.76;100.00
11448;BME280;43755;49.736;8.734;2022-10-20T00:50:56;98158.94;;;10.81;100.00
11448;BME280;43755;49.736;8.734;2022-10-20T00:52:58;98161.44;;;10.84;100.00
11448;BME280;43755;49.736;8.734;2022-10-20T00:54:59;98156.75;;;10.91;100.00
11448;BME280;43755;49.736;8.734;2022-10-20T00:57:02;98148.41;;;11.01;100.00
11448;BME280;43755;49.736;8.734;2022-10-20T00:59:03;98147.59;;;10.99;100.00
11448;BME280;43755;49.736;8.734;2022-10-20T01:01:05;98148.91;;;10.89;100.00
11448;BME280;43755;49.736;8.734;2022-10-20T01:03:11;98150.19;;;11.01;100.00
11448;BME280;43755;49.736;8.734;2022-10-20T01:05:17;98137.13;;;10.96;100.00
11448;BME280;43755;49.736;8.734;2022-10-20T01:07:18;98140.22;;;10.86;100.00
11448;BME280;43755;49.736;8.734;2022-10-20T01:09:20;98130.53;;;10.64;100.00
11448;BME280;43755;49.736;8.734;2022-10-20T01:11:30;98132.00;;;10.72;100.00
11448;BME280;43755;49.736;8.734;2022-10-20T01:13:38;98133.03;;;10.67;100.00
11448;BME280;43755;49.736;8.734;2022-10-20T01:15:54;98128.56;;;10.70;100.00
11448;BME280;43755;49.736;8.734;2022-10-20T01:18:04;98125.91;;;10.70;100.00
11448;BME280;43755;49.736;8.734;2022-10-20T01:23:05;98117.16;;;10.67;100.00
11448;BME280;43755;49.736;8.734;2022-10-20T01:25:17;98111.63;;;10.74;100.00
11448;BME280;43755;49.736;8.734;2022-10-20T01:27:30;98108.25;;;10.70;100.00
11448;BME280;43755;49.736;8.734;2022-10-20T01:29:35;98110.69;;;10.75;100.00
11448;BME280;43755;49.736;8.734;2022-10-20T01:31:41;98112.53;;;10.73;100.00
11448;BME280;43755;49.736;8.734;2022-10-20T01:33:48;98113.50;;;10.72;100.00
11448;BME280;43755;49.736;8.734;2022-10-20T01:36:00;98114.28;;;10.52;100.00
11448;BME280;43755;49.736;8.734;2022-10-20T01:38:09;98111.34;;;10.38;100.00
11448;BME280;43755;49.736;8.734;2022-10-20T01:40:18;98111.34;;;10.59;100.00
11448;BME280;43755;49.736;8.734;2022-10-20T01:42:23;98118.94;;;10.67;100.00
11448;BME280;43755;49.736;8.734;2022-10-20T01:44:28;98111.66;;;10.72;100.00
11448;BME280;43755;49.736;8.734;2022-10-20T01:46:31;98111.59;;;10.53;100.00
11448;BME280;43755;49.736;8.734;2022-10-20T01:48:34;98119.34;;;10.36;100.00
11448;BME280;43755;49.736;8.734;2022-10-20T01:50:38;98111.72;;;10.29;100.00
11448;BME280;43755;49.736;8.734;2022-10-20T01:52:40;98123.63;;;10.39;100.00
11448;BME280;43755;49.736;8.734;2022-10-20T01:54:41;98128.75;;;10.65;100.00
11448;BME280;43755;49.736;8.734;2022-10-20T01:56:54;98120.97;;;10.60;100.00
11448;BME280;43755;49.736;8.734;2022-10-20T01:59:24;98124.91;;;10.72;100.00
11448;BME280;43755;49.736;8.734;2022-10-20T02:01:42;98119.00;;;10.87;100.00
11448;BME280;43755;49.736;8.734;2022-10-20T02:03:51;98111.84;;;10.89;100.00
11448;BME280;43755;49.736;8.734;2022-10-20T02:06:03;98102.44;;;10.82;100.00
11448;BME280;43755;49.736;8.734;2022-10-20T02:08:12;98101.63;;;10.80;100.00
11448;BME280;43755;49.736;8.734;2022-10-20T02:10:17;98097.72;;;10.68;100.00
11448;BME280;43755;49.736;8.734;2022-10-20T02:12:22;98093.78;;;10.57;100.00
11448;BME280;43755;49.736;8.734;2022-10-20T02:14:25;98088.25;;;10.63;100.00
11448;BME280;43755;49.736;8.734;2022-10-20T02:16:29;98082.09;;;10.62;100.00
11448;BME280;43755;49.736;8.734;2022-10-20T02:18:38;98081.38;;;10.59;100.00
11448;BME280;43755;49.736;8.734;2022-10-20T02:20:42;98077.38;;;10.49;100.00
11448;BME280;43755;49.736;8.734;2022-10-20T02:22:44;98070.91;;;10.56;100.00
11448;BME280;43755;49.736;8.734;2022-10-20T02:24:46;98069.88;;;10.38;100.00
11448;BME280;43755;49.736;8.734;2022-10-20T02:26:49;98073.53;;;10.36;100.00
11448;BME280;43755;49.736;8.734;2022-10-20T02:28:54;98068.59;;;10.48;100.00
11448;BME280;43755;49.736;8.734;2022-10-20T02:30:57;98060.00;;;10.63;100.00
11448;BME280;43755;49.736;8.734;2022-10-20T02:32:58;98051.88;;;10.68;100.00
11448;BME280;43755;49.736;8.734;2022-10-20T02:35:04;98069.06;;;10.78;100.00
11448;BME280;43755;49.736;8.734;2022-10-20T02:37:06;98049.47;;;10.84;100.00
11448;BME280;43755;49.736;8.734;2022-10-20T02:39:08;98050.56;;;10.58;100.00
11448;BME280;43755;49.736;8.734;2022-10-20T02:41:11;98054.06;;;10.58;100.00
11448;BME280;43755;49.736;8.734;2022-10-20T02:43:12;98041.59;;;10.40;100.00
11448;BME280;43755;49.736;8.734;2022-10-20T02:45:14;98039.06;;;10.15;100.00
11448;BME280;43755;49.736;8.734;2022-10-20T02:47:15;98051.41;;;9.93;100.00
11448;BME280;43755;49.736;8.734;2022-10-20T02:49:17;98049.25;;;9.81;100.00
11448;BME280;43755;49.736;8.734;2022-10-20T02:51:20;98040.56;;;10.01;100.00
11448;BME280;43755;49.736;8.734;2022-10-20T02:53:22;98037.53;;;10.32;100.00
11448;BME280;43755;49.736;8.734;2022-10-20T02:55:23;98041.72;;;10.37;100.00
11448;BME280;43755;49.736;8.734;2022-10-20T02:57:25;98041.91;;;10.33;100.00
11448;BME280;43755;49.736;8.734;2022-10-20T02:59:26;98041.44;;;10.23;100.00
11448;BME280;43755;49.736;8.734;2022-10-20T03:01:28;98042.91;;;10.30;100.00
11448;BME280;43755;49.736;8.734;2022-10-20T03:03:29;98055.88;;;10.36;100.00
11448;BME280;43755;49.736;8.734;2022-10-20T03:05:31;98060.16;;;10.39;100.00
11448;BME280;43755;49.736;8.734;2022-10-20T03:07:33;98066.00;;;10.25;100.00
11448;BME280;43755;49.736;8.734;2022-10-20T03:09:35;98058.34;;;10.19;100.00
11448;BME280;43755;49.736;8.734;2022-10-20T03:11:37;98051.56;;;10.12;100.00
11448;BME280;43755;49.736;8.734;2022-10-20T03:13:38;98052.28;;;10.37;100.00
11448;BME280;43755;49.736;8.734;2022-10-20T03:15:40;98049.22;;;10.48;100.00
11448;BME280;43755;49.736;8.734;2022-10-20T03:17:41;98041.69;;;10.59;100.00
11448;BME280;43755;49.736;8.734;2022-10-20T03:19:42;98048.78;;;10.58;100.00
11448;BME280;43755;49.736;8.734;2022-10-20T03:21:44;98054.78;;;10.42;100.00
11448;BME280;43755;49.736;8.734;2022-10-20T03:23:49;98044.56;;;10.33;100.00
11448;BME280;43755;49.736;8.734;2022-10-20T03:25:50;98052.97;;;10.20;100.00
11448;BME280;43755;49.736;8.734;2022-10-20T03:27:52;98054.59;;;10.24;100.00
11448;BME280;43755;49.736;8.734;2022-10-20T03:29:53;98056.44;;;10.22;100.00
11448;BME280;43755;49.736;8.734;2022-10-20T03:31:54;98050.13;;;10.25;100.00
11448;BME280;43755;49.736;8.734;2022-10-20T03:33:56;98048.31;;;10.27;100.00
11448;BME280;43755;49.736;8.734;2022-10-20T03:35:57;98042.25;;;10.02;100.00
11448;BME280;43755;49.736;8.734;2022-10-20T03:37:59;98035.84;;;10.07;100.00
11448;BME280;43755;49.736;8.734;2022-10-20T03:40:01;98045.41;;;10.11;100.00
11448;BME280;43755;49.736;8.734;2022-10-20T03:42:03;98051.72;;;10.07;100.00
11448;BME280;43755;49.736;8.734;2022-10-20T03:44:05;98034.28;;;10.25;100.00
11448;BME280;43755;49.736;8.734;2022-10-20T03:46:08;98033.91;;;10.34;100.00
11448;BME280;43755;49.736;8.734;2022-10-20T03:48:11;98041.59;;;10.40;100.00
11448;BME280;43755;49.736;8.734;2022-10-20T03:50:12;98042.31;;;10.44;100.00
11448;BME280;43755;49.736;8.734;2022-10-20T03:52:13;98047.50;;;10.47;100.00
11448;BME280;43755;49.736;8.734;2022-10-20T03:54:15;98045.56;;;10.50;100.00
11448;BME280;43755;49.736;8.734;2022-10-20T03:56:19;98025.34;;;10.49;100.00
11448;BME280;43755;49.736;8.734;2022-10-20T03:58:20;98026.44;;;10.44;100.00
11448;BME280;43755;49.736;8.734;2022-10-20T04:00:22;98019.88;;;10.32;100.00
11448;BME280;43755;49.736;8.734;2022-10-20T04:02:31;98013.31;;;10.20;100.00
11448;BME280;43755;49.736;8.734;2022-10-20T04:04:33;98005.19;;;10.03;100.00
11448;BME280;43755;49.736;8.734;2022-10-20T04:06:34;98005.56;;;9.94;100.00
11448;BME280;43755;49.736;8.734;2022-10-20T04:08:36;97989.72;;;9.94;100.00
11448;BME280;43755;49.736;8.734;2022-10-20T04:10:37;97987.22;;;9.90;100.00
11448;BME280;43755;49.736;8.734;2022-10-20T04:12:40;97990.81;;;9.89;100.00
11448;BME280;43755;49.736;8.734;2022-10-20T04:14:42;97983.16;;;9.82;100.00
11448;BME280;43755;49.736;8.734;2022-10-20T04:16:43;97980.78;;;9.75;100.00
11448;BME280;43755;49.736;8.734;2022-10-20T04:18:44;97968.41;;;9.77;100.00
11448;BME280;43755;49.736;8.734;2022-10-20T04:20:46;97967.41;;;9.79;100.00
11448;BME280;43755;49.736;8.734;2022-10-20T04:22:47;97968.94;;;9.85;100.00
11448;BME280;43755;49.736;8.734;2022-10-20T04:24:49;97969.03;;;9.83;100.00
11448;BME280;43755;49.736;8.734;2022-10-20T04:26:50;97955.84;;;9.82;100.00
11448;BME280;43755;49.736;8.734;2022-10-20T04:28:54;97962.88;;;9.83;100.00
11448;BME280;43755;49.736;8.734;2022-10-20T04:30:58;97969.13;;;9.80;100.00
11448;BME280;43755;49.736;8.734;2022-10-20T04:33:00;97978.53;;;9.88;100.00
11448;BME280;43755;49.736;8.734;2022-10-20T04:35:01;97971.84;;;10.01;100.00
11448;BME280;43755;49.736;8.734;2022-10-20T04:37:03;97973.53;;;10.02;100.00
11448;BME280;43755;49.736;8.734;2022-10-20T04:39:05;97978.22;;;9.95;100.00
11448;BME280;43755;49.736;8.734;2022-10-20T04:41:06;97977.25;;;10.40;100.00
11448;BME280;43755;49.736;8.734;2022-10-20T04:43:08;97979.97;;;10.38;100.00
11448;BME280;43755;49.736;8.734;2022-10-20T04:45:11;97987.44;;;10.29;100.00
11448;BME280;43755;49.736;8.734;2022-10-20T04:47:12;97981.94;;;10.33;100.00
11448;BME280;43755;49.736;8.734;2022-10-20T04:49:14;97977.31;;;10.38;100.00
11448;BME280;43755;49.736;8.734;2022-10-20T04:51:16;97961.25;;;10.43;100.00
11448;BME280;43755;49.736;8.734;2022-10-20T04:53:17;97971.97;;;10.40;100.00
11448;BME280;43755;49.736;8.734;2022-10-20T04:55:18;97963.50;;;10.32;100.00
11448;BME280;43755;49.736;8.734;2022-10-20T04:57:20;97960.34;;;10.23;100.00
11448;BME280;43755;49.736;8.734;2022-10-20T04:59:21;97965.09;;;10.14;100.00
11448;BME280;43755;49.736;8.734;2022-10-20T05:01:25;97960.91;;;10.08;100.00
11448;BME280;43755;49.736;8.734;2022-10-20T05:03:27;97947.41;;;10.16;100.00
11448;BME280;43755;49.736;8.734;2022-10-20T05:05:28;97953.25;;;10.24;100.00
11448;BME280;43755;49.736;8.734;2022-10-20T05:07:29;97947.63;;;10.32;100.00
11448;BME280;43755;49.736;8.734;2022-10-20T05:09:31;97933.72;;;10.48;100.00
11448;BME280;43755;49.736;8.734;2022-10-20T05:11:34;97935.78;;;10.60;100.00
11448;BME280;43755;49.736;8.734;2022-10-20T05:13:36;97935.41;;;10.70;100.00
11448;BME280;43755;49.736;8.734;2022-10-20T05:15:38;97940.28;;;10.79;100.00
11448;BME280;43755;49.736;8.734;2022-10-20T05:17:41;97945.56;;;10.79;100.00
11448;BME280;43755;49.736;8.734;2022-10-20T05:19:42;97950.00;;;10.78;100.00
11448;BME280;43755;49.736;8.734;2022-10-20T05:21:44;97951.13;;;10.73;100.00
11448;BME280;43755;49.736;8.734;2022-10-20T05:23:46;97943.53;;;10.45;100.00
11448;BME280;43755;49.736;8.734;2022-10-20T05:25:47;97935.75;;;10.42;100.00
11448;BME280;43755;49.736;8.734;2022-10-20T05:27:49;97925.50;;;10.34;100.00
11448;BME280;43755;49.736;8.734;2022-10-20T05:29:50;97918.03;;;10.23;100.00
11448;BME280;43755;49.736;8.734;2022-10-20T05:31:52;97923.53;;;10.19;100.00
11448;BME280;43755;49.736;8.734;2022-10-20T05:33:55;97918.81;;;10.25;100.00
11448;BME280;43755;49.736;8.734;2022-10-20T05:35:57;97923.19;;;10.26;100.00
11448;BME280;43755;49.736;8.734;2022-10-20T05:37:58;97912.94;;;10.19;100.00
11448;BME280;43755;49.736;8.734;2022-10-20T05:40:00;97909.28;;;10.21;100.00
11448;BME280;43755;49.736;8.734;2022-10-20T05:42:02;97909.66;;;10.12;100.00
11448;BME280;43755;49.736;8.734;2022-10-20T05:44:05;97903.34;;;10.16;100.00
11448;BME280;43755;49.736;8.734;2022-10-20T05:46:08;97895.75;;;10.07;100.00
11448;BME280;43755;49.736;8.734;2022-10-20T05:48:09;97904.22;;;10.17;100.00
11448;BME280;43755;49.736;8.734;2022-10-20T05:50:12;97899.63;;;10.00;100.00
11448;BME280;43755;49.736;8.734;2022-10-20T05:52:13;97893.56;;;9.97;100.00
11448;BME280;43755;49.736;8.734;2022-10-20T05:54:15;97890.88;;;9.98;100.00
11448;BME280;43755;49.736;8.734;2022-10-20T05:56:18;97904.16;;;9.97;100.00
11448;BME280;43755;49.736;8.734;2022-10-20T05:58:20;97909.56;;;9.94;100.00
11448;BME280;43755;49.736;8.734;2022-10-20T06:00:22;97919.53;;;9.87;100.00
11448;BME280;43755;49.736;8.734;2022-10-20T06:02:29;97922.38;;;9.82;100.00
11448;BME280;43755;49.736;8.734;2022-10-20T06:04:31;97907.47;;;10.02;100.00
11448;BME280;43755;49.736;8.734;2022-10-20T06:06:34;97893.00;;;10.10;100.00
11448;BME280;43755;49.736;8.734;2022-10-20T06:08:35;97896.16;;;10.40;100.00
11448;BME280;43755;49.736;8.734;2022-10-20T06:10:39;97893.69;;;10.56;100.00
11448;BME280;43755;49.736;8.734;2022-10-20T06:12:41;97895.00;;;10.66;100.00
11448;BME280;43755;49.736;8.734;2022-10-20T06:14:42;97908.03;;;10.71;100.00
11448;BME280;43755;49.736;8.734;2022-10-20T06:16:44;97904.63;;;10.67;100.00
11448;BME280;43755;49.736;8.734;2022-10-20T06:18:45;97909.94;;;10.67;100.00
11448;BME280;43755;49.736;8.734;2022-10-20T06:20:47;97914.63;;;10.60;100.00
11448;BME280;43755;49.736;8.734;2022-10-20T06:22:49;97894.09;;;10.26;100.00
11448;BME280;43755;49.736;8.734;2022-10-20T06:24:51;97910.75;;;10.29;100.00
11448;BME280;43755;49.736;8.734;2022-10-20T06:26:52;97916.50;;;10.38;100.00
11448;BME280;43755;49.736;8.734;2022-10-20T06:28:55;97905.88;;;10.60;100.00
11448;BME280;43755;49.736;8.734;2022-10-20T06:30:57;97908.03;;;10.71;100.00
11448;BME280;43755;49.736;8.734;2022-10-20T06:32:58;97915.88;;;10.72;100.00
11448;BME280;43755;49.736;8.734;2022-10-20T06:35:00;97906.75;;;10.79;100.00
11448;BME280;43755;49.736;8.734;2022-10-20T06:37:01;97912.63;;;10.86;100.00
11448;BME280;43755;49.736;8.734;2022-10-20T06:39:05;97923.84;;;10.91;100.00
11448;BME280;43755;49.736;8.734;2022-10-20T06:41:09;97922.81;;;10.95;100.00
11448;BME280;43755;49.736;8.734;2022-10-20T06:43:10;97927.28;;;10.93;100.00
11448;BME280;43755;49.736;8.734;2022-10-20T06:45:12;97931.09;;;10.87;100.00
11448;BME280;43755;49.736;8.734;2022-10-20T06:47:13;97938.09;;;10.88;100.00
11448;BME280;43755;49.736;8.734;2022-10-20T06:49:15;97950.19;;;10.94;100.00
11448;BME280;43755;49.736;8.734;2022-10-20T06:51:17;97967.59;;;10.99;100.00
11448;BME280;43755;49.736;8.734;2022-10-20T06:53:21;97979.09;;;10.98;100.00
11448;BME280;43755;49.736;8.734;2022-10-20T06:55:23;97964.03;;;11.00;100.00
11448;BME280;43755;49.736;8.734;2022-10-20T06:57:25;97976.59;;;10.95;100.00
11448;BME280;43755;49.736;8.734;2022-10-20T06:59:26;97977.38;;;10.97;100.00
11448;BME280;43755;49.736;8.734;2022-10-20T07:01:28;97974.66;;;10.99;100.00
11448;BME280;43755;49.736;8.734;2022-10-20T07:03:31;97973.69;;;11.01;100.00
11448;BME280;43755;49.736;8.734;2022-10-20T07:05:33;97975.03;;;11.10;100.00
11448;BME280;43755;49.736;8.734;2022-10-20T07:07:35;97984.44;;;11.17;100.00
11448;BME280;43755;49.736;8.734;2022-10-20T07:09:36;97990.38;;;11.22;100.00
11448;BME280;43755;49.736;8.734;2022-10-20T07:11:40;97989.38;;;11.25;100.00
11448;BME280;43755;49.736;8.734;2022-10-20T07:13:42;97993.44;;;11.32;100.00
11448;BME280;43755;49.736;8.734;2022-10-20T07:15:45;97989.00;;;11.32;100.00
11448;BME280;43755;49.736;8.734;2022-10-20T07:17:46;97987.16;;;11.34;100.00
11448;BME280;43755;49.736;8.734;2022-10-20T07:19:49;97988.66;;;11.40;100.00
11448;BME280;43755;49.736;8.734;2022-10-20T07:21:50;97984.28;;;11.39;100.00
11448;BME280;43755;49.736;8.734;2022-10-20T07:23:52;97983.09;;;11.46;100.00
11448;BME280;43755;49.736;8.734;2022-10-20T07:25:59;97965.34;;;11.48;100.00
11448;BME280;43755;49.736;8.734;2022-10-20T07:28:02;97972.06;;;11.55;100.00
11448;BME280;43755;49.736;8.734;2022-10-20T07:30:05;97985.88;;;11.62;100.00
11448;BME280;43755;49.736;8.734;2022-10-20T07:32:06;97956.09;;;11.75;100.00
11448;BME280;43755;49.736;8.734;2022-10-20T07:34:09;97963.69;;;11.83;100.00
11448;BME280;43755;49.736;8.734;2022-10-20T07:36:12;97964.25;;;11.89;100.00
11448;BME280;43755;49.736;8.734;2022-10-20T07:38:15;97956.63;;;12.01;100.00
11448;BME280;43755;49.736;8.734;2022-10-20T07:40:16;97953.53;;;12.10;100.00
11448;BME280;43755;49.736;8.734;2022-10-20T07:42:18;97948.72;;;12.18;100.00
11448;BME280;43755;49.736;8.734;2022-10-20T07:44:21;97950.88;;;12.27;100.00
11448;BME280;43755;49.736;8.734;2022-10-20T07:46:23;97962.84;;;12.36;100.00
11448;BME280;43755;49.736;8.734;2022-10-20T07:48:25;97959.06;;;12.22;100.00
11448;BME280;43755;49.736;8.734;2022-10-20T07:50:26;97948.88;;;11.96;100.00
11448;BME280;43755;49.736;8.734;2022-10-20T07:52:27;97954.91;;;12.00;100.00
11448;BME280;43755;49.736;8.734;2022-10-20T07:54:30;97953.28;;;12.14;100.00
11448;BME280;43755;49.736;8.734;2022-10-20T07:56:33;97960.09;;;12.37;100.00
11448;BME280;43755;49.736;8.734;2022-10-20T07:58:35;97975.06;;;12.55;100.00
11448;BME280;43755;49.736;8.734;2022-10-20T08:00:38;97985.69;;;12.72;100.00
11448;BME280;43755;49.736;8.734;2022-10-20T08:02:39;97982.03;;;12.75;100.00
11448;BME280;43755;49.736;8.734;2022-10-20T08:04:41;97983.03;;;12.90;100.00
11448;BME280;43755;49.736;8.734;2022-10-20T08:06:43;97964.13;;;13.13;100.00
11448;BME280;43755;49.736;8.734;2022-10-20T08:08:46;97965.16;;;13.26;100.00
11448;BME280;43755;49.736;8.734;2022-10-20T08:10:47;97972.91;;;13.31;100.00
11448;BME280;43755;49.736;8.734;2022-10-20T08:12:49;97964.94;;;13.46;100.00
11448;BME280;43755;49.736;8.734;2022-10-20T08:14:50;97956.13;;;13.46;100.00
11448;BME280;43755;49.736;8.734;2022-10-20T08:16:53;97951.47;;;13.49;100.00
11448;BME280;43755;49.736;8.734;2022-10-20T08:18:54;97964.34;;;13.41;100.00
11448;BME280;43755;49.736;8.734;2022-10-20T08:21:05;97966.81;;;13.29;100.00
11448;BME280;43755;49.736;8.734;2022-10-20T08:23:06;97957.66;;;13.34;100.00
11448;BME280;43755;49.736;8.734;2022-10-20T08:25:09;97942.41;;;13.53;100.00
11448;BME280;43755;49.736;8.734;2022-10-20T08:27:13;97935.63;;;13.64;100.00
11448;BME280;43755;49.736;8.734;2022-10-20T08:29:15;97944.88;;;13.57;100.00
11448;BME280;43755;49.736;8.734;2022-10-20T08:31:16;97948.59;;;13.70;100.00
11448;BME280;43755;49.736;8.734;2022-10-20T08:33:19;97953.47;;;13.77;100.00
11448;BME280;43755;49.736;8.734;2022-10-20T08:35:21;97950.47;;;13.83;100.00
11448;BME280;43755;49.736;8.734;2022-10-20T08:37:23;97947.44;;;14.05;100.00
11448;BME280;43755;49.736;8.734;2022-10-20T08:39:24;97934.16;;;13.74;100.00
11448;BME280;43755;49.736;8.734;2022-10-20T08:41:28;97935.28;;;13.70;100.00
11448;BME280;43755;49.736;8.734;2022-10-20T08:43:35;97941.28;;;13.58;100.00
11448;BME280;43755;49.736;8.734;2022-10-20T08:45:40;97950.28;;;13.39;100.00
11448;BME280;43755;49.736;8.734;2022-10-20T08:47:42;97942.56;;;13.19;100.00
11448;BME280;43755;49.736;8.734;2022-10-20T08:49:45;97946.50;;;13.10;100.00
11448;BME280;43755;49.736;8.734;2022-10-20T08:51:47;97937.13;;;12.88;100.00
11448;BME280;43755;49.736;8.734;2022-10-20T08:53:51;97939.81;;;12.70;100.00
11448;BME280;43755;49.736;8.734;2022-10-20T08:55:54;97930.19;;;12.68;100.00
11448;BME280;43755;49.736;8.734;2022-10-20T08:57:59;97926.78;;;12.66;100.00
11448;BME280;43755;49.736;8.734;2022-10-20T09:00:12;97926.63;;;12.85;100.00
11448;BME280;43755;49.736;8.734;2022-10-20T09:02:16;97933.97;;;12.97;100.00
11448;BME280;43755;49.736;8.734;2022-10-20T09:04:20;97934.25;;;13.08;100.00
11448;BME280;43755;49.736;8.734;2022-10-20T09:06:23;97922.91;;;13.37;100.00
11448;BME280;43755;49.736;8.734;2022-10-20T09:08:28;97921.56;;;13.62;100.00
11448;BME280;43755;49.736;8.734;2022-10-20T09:10:33;97921.81;;;13.73;100.00
11448;BME280;43755;49.736;8.734;2022-10-20T09:12:37;97918.41;;;13.71;100.00
11448;BME280;43755;49.736;8.734;2022-10-20T09:14:40;97922.69;;;13.89;100.00
11448;BME280;43755;49.736;8.734;2022-10-20T09:16:42;97928.03;;;14.03;100.00
11448;BME280;43755;49.736;8.734;2022-10-20T09:18:50;97929.94;;;14.01;100.00
11448;BME280;43755;49.736;8.734;2022-10-20T09:20:55;97930.66;;;13.89;100.00
11448;BME280;43755;49.736;8.734;2022-10-20T09:22:59;97932.84;;;14.12;100.00
11448;BME280;43755;49.736;8.734;2022-10-20T09:25:00;97941.00;;;14.09;100.00
11448;BME280;43755;49.736;8.734;2022-10-20T09:27:18;97945.09;;;14.15;100.00
11448;BME280;43755;49.736;8.734;2022-10-20T09:29:21;97938.31;;;14.25;100.00
11448;BME280;43755;49.736;8.734;2022-10-20T09:31:30;97936.56;;;14.40;100.00
11448;BME280;43755;49.736;8.734;2022-10-20T09:33:33;97943.28;;;14.31;100.00
11448;BME280;43755;49.736;8.734;2022-10-20T09:35:35;97936.78;;;14.51;100.00
11448;BME280;43755;49.736;8.734;2022-10-20T09:37:37;97943.28;;;14.61;100.00
11448;BME280;43755;49.736;8.734;2022-10-20T09:39:42;97945.97;;;14.75;100.00
11448;BME280;43755;49.736;8.734;2022-10-20T09:41:58;97950.56;;;14.87;100.00
11448;BME280;43755;49.736;8.734;2022-10-20T09:44:03;97948.66;;;14.89;100.00
11448;BME280;43755;49.736;8.734;2022-10-20T09:46:08;97958.56;;;14.87;100.00
11448;BME280;43755;49.736;8.734;2022-10-20T09:48:19;97959.66;;;14.69;100.00
11448;BME280;43755;49.736;8.734;2022-10-20T09:50:24;97954.16;;;14.72;100.00
11448;BME280;43755;49.736;8.734;2022-10-20T09:52:29;97964.31;;;14.80;100.00
11448;BME280;43755;49.736;8.734;2022-10-20T09:54:33;97972.63;;;14.89;100.00
11448;BME280;43755;49.736;8.734;2022-10-20T09:56:37;97971.16;;;15.13;100.00
11448;BME280;43755;49.736;8.734;2022-10-20T09:58:44;97956.41;;;15.36;100.00
11448;BME280;43755;49.736;8.734;2022-10-20T10:00:55;97946.19;;;15.57;100.00
11448;BME280;43755;49.736;8.734;2022-10-20T10:03:22;97955.91;;;15.72;100.00
11448;BME280;43755;49.736;8.734;2022-10-20T10:05:31;97944.22;;;15.61;100.00
11448;BME280;43755;49.736;8.734;2022-10-20T10:07:33;97942.38;;;15.61;100.00
11448;BME280;43755;49.736;8.734;2022-10-20T10:09:36;97949.44;;;15.62;100.00
11448;BME280;43755;49.736;8.734;2022-10-20T10:11:39;97949.63;;;15.45;100.00
11448;BME280;43755;49.736;8.734;2022-10-20T10:13:43;97953.03;;;15.47;100.00
11448;BME280;43755;49.736;8.734;2022-10-20T10:15:45;97951.16;;;15.49;100.00
11448;BME280;43755;49.736;8.734;2022-10-20T10:17:46;97948.88;;;15.43;100.00
11448;BME280;43755;49.736;8.734;2022-10-20T10:19:48;97938.09;;;15.44;100.00
11448;BME280;43755;49.736;8.734;2022-10-20T10:21:51;97945.91;;;15.47;100.00
11448;BME280;43755;49.736;8.734;2022-10-20T10:23:55;97944.69;;;15.53;100.00
11448;BME280;43755;49.736;8.734;2022-10-20T10:25:57;97945.41;;;15.69;100.00
11448;BME280;43755;49.736;8.734;2022-10-20T10:28:02;97938.28;;;15.70;100.00
11448;BME280;43755;49.736;8.734;2022-10-20T10:30:25;97941.16;;;15.52;100.00
11448;BME280;43755;49.736;8.734;2022-10-20T10:32:28;97939.16;;;15.42;100.00
11448;BME280;43755;49.736;8.734;2022-10-20T10:34:59;97933.63;;;15.16;100.00
11448;BME280;43755;49.736;8.734;2022-10-20T10:37:03;97928.53;;;15.13;100.00
11448;BME280;43755;49.736;8.734;2022-10-20T10:39:09;97922.78;;;15.05;100.00
11448;BME280;43755;49.736;8.734;2022-10-20T10:41:18;97914.25;;;15.00;100.00
11448;BME280;43755;49.736;8.734;2022-10-20T10:43:30;97908.13;;;14.98;100.00
11448;BME280;43755;49.736;8.734;2022-10-20T10:45:43;97906.34;;;14.99;100.00
11448;BME280;43755;49.736;8.734;2022-10-20T10:48:06;97894.31;;;15.20;100.00
11448;BME280;43755;49.736;8.734;2022-10-20T10:50:24;97892.50;;;15.35;100.00